sensor_id;sensor_type;location;lat;lon;timestamp;pressure;altitude;pressure_sealevel;temperature;humidity
60817;BME280;51921;51.518;-3.188;2022-07-15T00:02:20;102279.25;;;17.07;45.25
60817;BME280;51921;51.518;-3.188;2022-07-15T00:04:45;102275.94;;;17.27;45.12
60817;BME280;51921;51.518;-3.188;2022-07-15T00:07:11;102279.04;;;16.13;46.47
60817;BME280;51921;51.518;-3.188;2022-07-15T00:09:41;102282.93;;;14.81;50.12
60817;BME280;51921;51.518;-3.188;2022-07-15T00:12:02;102279.73;;;14.44;51.12
60817;BME280;51921;51.518;-3.188;2022-07-15T00:14:27;102271.34;;;13.35;54.04
60817;BME280;51921;51.518;-3.188;2022-07-15T00:16:52;102271.44;;;15.64;51.07
60817;BME280;51921;51.518;-3.188;2022-07-15T00:19:18;102269.24;;;16.62;48.03
60817;BME280;51921;51.518;-3.188;2022-07-15T00:21:43;102268.58;;;16.84;47.25
60817;BME280;51921;51.518;-3.188;2022-07-15T00:24:08;102269.47;;;17.12;46.99
60817;BME280;51921;51.518;-3.188;2022-07-15T00:26:34;102269.55;;;16.78;46.66
60817;BME280;51921;51.518;-3.188;2022-07-15T00:28:59;102267.84;;;16.64;47.38
60817;BME280;51921;51.518;-3.188;2022-07-15T00:31:25;102268.07;;;17.40;45.75
60817;BME280;51921;51.518;-3.188;2022-07-15T00:33:50;102268.66;;;17.73;45.23
60817;BME280;51921;51.518;-3.188;2022-07-15T00:36:16;102268.38;;;16.57;46.96
60817;BME280;51921;51.518;-3.188;2022-07-15T00:38:41;102266.00;;;17.24;45.64
60817;BME280;51921;51.518;-3.188;2022-07-15T00:41:06;102262.90;;;17.74;45.12
60817;BME280;51921;51.518;-3.188;2022-07-15T00:43:32;102263.02;;;17.32;45.57
60817;BME280;51921;51.518;-3.188;2022-07-15T00:45:57;102259.88;;;17.23;45.37
60817;BME280;51921;51.518;-3.188;2022-07-15T00:48:22;102251.76;;;17.41;44.83
60817;BME280;51921;51.518;-3.188;2022-07-15T00:50:48;102251.05;;;12.34;56.37
60817;BME280;51921;51.518;-3.188;2022-07-15T00:53:16;102248.02;;;11.55;59.99
60817;BME280;51921;51.518;-3.188;2022-07-15T00:55:42;102242.81;;;13.41;55.81
60817;BME280;51921;51.518;-3.188;2022-07-15T00:58:05;102243.33;;;13.01;56.45
60817;BME280;51921;51.518;-3.188;2022-07-15T01:00:30;102243.90;;;12.59;58.46
60817;BME280;51921;51.518;-3.188;2022-07-15T01:02:55;102247.85;;;14.06;54.24
60817;BME280;51921;51.518;-3.188;2022-07-15T01:05:21;102247.90;;;16.68;48.27
60817;BME280;51921;51.518;-3.188;2022-07-15T01:07:46;102251.70;;;16.97;48.21
60817;BME280;51921;51.518;-3.188;2022-07-15T01:10:11;102255.43;;;16.46;49.11
60817;BME280;51921;51.518;-3.188;2022-07-15T01:12:37;102251.75;;;17.15;48.54
60817;BME280;51921;51.518;-3.188;2022-07-15T01:15:02;102249.45;;;16.53;48.77
60817;BME280;51921;51.518;-3.188;2022-07-15T01:17:28;102255.82;;;15.05;52.10
60817;BME280;51921;51.518;-3.188;2022-07-15T01:19:53;102251.74;;;16.41;48.63
60817;BME280;51921;51.518;-3.188;2022-07-15T01:22:18;102252.82;;;15.53;49.68
60817;BME280;51921;51.518;-3.188;2022-07-15T01:24:44;102259.51;;;15.20;50.31
60817;BME280;51921;51.518;-3.188;2022-07-15T01:27:09;102256.01;;;15.59;49.59
60817;BME280;51921;51.518;-3.188;2022-07-15T01:29:34;102260.57;;;15.05;50.29
60817;BME280;51921;51.518;-3.188;2022-07-15T01:32:00;102254.02;;;15.50;49.76
60817;BME280;51921;51.518;-3.188;2022-07-15T01:34:25;102256.71;;;15.38;49.73
60817;BME280;51921;51.518;-3.188;2022-07-15T01:36:51;102260.75;;;15.00;50.62
60817;BME280;51921;51.518;-3.188;2022-07-15T01:39:16;102258.79;;;15.24;49.86
60817;BME280;51921;51.518;-3.188;2022-07-15T01:41:42;102264.99;;;15.19;50.66
60817;BME280;51921;51.518;-3.188;2022-07-15T01:44:07;102267.47;;;14.42;51.47
60817;BME280;51921;51.518;-3.188;2022-07-15T01:46:32;102268.23;;;15.35;50.31
60817;BME280;51921;51.518;-3.188;2022-07-15T01:48:58;102271.94;;;14.12;53.07
60817;BME280;51921;51.518;-3.188;2022-07-15T01:51:23;102274.14;;;13.53;54.83
60817;BME280;51921;51.518;-3.188;2022-07-15T01:53:49;102272.93;;;14.18;52.99
60817;BME280;51921;51.518;-3.188;2022-07-15T01:56:14;102274.48;;;14.39;52.75
60817;BME280;51921;51.518;-3.188;2022-07-15T01:58:39;102270.07;;;15.55;49.41
60817;BME280;51921;51.518;-3.188;2022-07-15T02:01:05;102271.95;;;15.43;49.31
60817;BME280;51921;51.518;-3.188;2022-07-15T02:03:30;102274.59;;;16.60;47.90
60817;BME280;51921;51.518;-3.188;2022-07-15T02:05:56;102278.93;;;15.11;51.27
60817;BME280;51921;51.518;-3.188;2022-07-15T02:08:21;102281.99;;;14.87;51.03
60817;BME280;51921;51.518;-3.188;2022-07-15T02:10:47;102284.37;;;15.06;50.78
60817;BME280;51921;51.518;-3.188;2022-07-15T02:13:13;102280.80;;;15.63;50.09
60817;BME280;51921;51.518;-3.188;2022-07-15T02:15:38;102279.06;;;14.41;52.65
60817;BME280;51921;51.518;-3.188;2022-07-15T02:18:04;102276.42;;;14.40;52.80
60817;BME280;51921;51.518;-3.188;2022-07-15T02:20:29;102276.76;;;15.42;51.54
60817;BME280;51921;51.518;-3.188;2022-07-15T02:22:54;102275.50;;;14.36;53.17
60817;BME280;51921;51.518;-3.188;2022-07-15T02:25:19;102274.49;;;14.81;53.19
60817;BME280;51921;51.518;-3.188;2022-07-15T02:27:45;102272.58;;;13.60;55.31
60817;BME280;51921;51.518;-3.188;2022-07-15T02:30:11;102271.13;;;13.34;56.37
60817;BME280;51921;51.518;-3.188;2022-07-15T02:32:36;102274.44;;;12.87;57.78
60817;BME280;51921;51.518;-3.188;2022-07-15T02:35:01;102271.48;;;12.55;58.28
60817;BME280;51921;51.518;-3.188;2022-07-15T02:37:27;102264.29;;;13.89;56.23
60817;BME280;51921;51.518;-3.188;2022-07-15T02:39:52;102261.11;;;14.06;54.74
60817;BME280;51921;51.518;-3.188;2022-07-15T02:42:18;102259.85;;;14.12;54.90
60817;BME280;51921;51.518;-3.188;2022-07-15T02:44:43;102263.32;;;13.78;55.62
60817;BME280;51921;51.518;-3.188;2022-07-15T02:47:08;102262.62;;;13.85;55.19
60817;BME280;51921;51.518;-3.188;2022-07-15T02:49:34;102259.86;;;14.56;53.76
60817;BME280;51921;51.518;-3.188;2022-07-15T02:51:59;102259.74;;;14.90;53.39
60817;BME280;51921;51.518;-3.188;2022-07-15T02:54:25;102255.32;;;14.67;53.76
60817;BME280;51921;51.518;-3.188;2022-07-15T02:56:51;102254.90;;;14.24;54.79
60817;BME280;51921;51.518;-3.188;2022-07-15T02:59:16;102258.31;;;14.57;54.29
60817;BME280;51921;51.518;-3.188;2022-07-15T03:01:41;102253.95;;;13.66;55.63
60817;BME280;51921;51.518;-3.188;2022-07-15T03:04:07;102258.44;;;13.99;54.98
60817;BME280;51921;51.518;-3.188;2022-07-15T03:06:32;102260.00;;;14.90;53.16
60817;BME280;51921;51.518;-3.188;2022-07-15T03:08:58;102262.70;;;14.52;54.63
60817;BME280;51921;51.518;-3.188;2022-07-15T03:11:24;102263.63;;;14.61;54.25
60817;BME280;51921;51.518;-3.188;2022-07-15T03:13:49;102261.54;;;13.75;55.18
60817;BME280;51921;51.518;-3.188;2022-07-15T03:16:14;102262.36;;;14.75;52.60
60817;BME280;51921;51.518;-3.188;2022-07-15T03:18:40;102262.53;;;15.44;50.73
60817;BME280;51921;51.518;-3.188;2022-07-15T03:21:05;102261.02;;;15.47;50.48
60817;BME280;51921;51.518;-3.188;2022-07-15T03:23:30;102262.29;;;14.81;51.35
60817;BME280;51921;51.518;-3.188;2022-07-15T03:25:56;102260.81;;;15.20;50.97
60817;BME280;51921;51.518;-3.188;2022-07-15T03:28:21;102257.88;;;14.43;52.02
60817;BME280;51921;51.518;-3.188;2022-07-15T03:30:48;102261.14;;;14.50;51.70
60817;BME280;51921;51.518;-3.188;2022-07-15T03:33:12;102260.89;;;14.46;51.08
60817;BME280;51921;51.518;-3.188;2022-07-15T03:35:38;102259.29;;;15.47;49.50
60817;BME280;51921;51.518;-3.188;2022-07-15T03:38:03;102251.21;;;16.40;47.13
60817;BME280;51921;51.518;-3.188;2022-07-15T03:40:28;102250.90;;;16.61;47.35
60817;BME280;51921;51.518;-3.188;2022-07-15T03:42:54;102253.52;;;15.31;49.07
60817;BME280;51921;51.518;-3.188;2022-07-15T03:45:19;102248.29;;;16.61;47.22
60817;BME280;51921;51.518;-3.188;2022-07-15T03:47:45;102245.28;;;15.76;48.78
60817;BME280;51921;51.518;-3.188;2022-07-15T03:50:10;102242.58;;;16.95;47.05
60817;BME280;51921;51.518;-3.188;2022-07-15T03:52:36;102237.03;;;17.09;47.00
60817;BME280;51921;51.518;-3.188;2022-07-15T03:55:01;102236.06;;;15.95;48.85
60817;BME280;51921;51.518;-3.188;2022-07-15T03:57:27;102234.66;;;15.00;51.29
60817;BME280;51921;51.518;-3.188;2022-07-15T03:59:52;102234.33;;;14.99;51.40
60817;BME280;51921;51.518;-3.188;2022-07-15T04:02:18;102232.08;;;14.58;51.88
60817;BME280;51921;51.518;-3.188;2022-07-15T04:04:43;102234.00;;;14.73;51.60
60817;BME280;51921;51.518;-3.188;2022-07-15T04:07:08;102226.81;;;14.51;51.04
60817;BME280;51921;51.518;-3.188;2022-07-15T04:09:34;102215.94;;;14.48;51.81
60817;BME280;51921;51.518;-3.188;2022-07-15T04:11:59;102212.81;;;14.48;51.30
60817;BME280;51921;51.518;-3.188;2022-07-15T04:14:24;102215.95;;;14.86;51.05
60817;BME280;51921;51.518;-3.188;2022-07-15T04:16:50;102211.88;;;15.26;49.90
60817;BME280;51921;51.518;-3.188;2022-07-15T04:19:16;102213.07;;;14.31;51.73
60817;BME280;51921;51.518;-3.188;2022-07-15T04:21:41;102214.66;;;14.91;50.25
60817;BME280;51921;51.518;-3.188;2022-07-15T04:24:06;102217.52;;;14.53;50.93
60817;BME280;51921;51.518;-3.188;2022-07-15T04:26:32;102216.28;;;13.92;52.11
60817;BME280;51921;51.518;-3.188;2022-07-15T04:28:57;102214.46;;;14.74;50.65
60817;BME280;51921;51.518;-3.188;2022-07-15T04:31:23;102212.45;;;13.79;52.16
60817;BME280;51921;51.518;-3.188;2022-07-15T04:33:48;102204.98;;;15.43;49.34
60817;BME280;51921;51.518;-3.188;2022-07-15T04:36:13;102211.07;;;13.98;52.11
60817;BME280;51921;51.518;-3.188;2022-07-15T04:38:39;102206.89;;;13.56;52.97
60817;BME280;51921;51.518;-3.188;2022-07-15T04:41:09;102212.33;;;14.84;50.96
60817;BME280;51921;51.518;-3.188;2022-07-15T04:43:30;102213.56;;;14.66;51.14
60817;BME280;51921;51.518;-3.188;2022-07-15T04:45:55;102213.10;;;14.39;51.81
60817;BME280;51921;51.518;-3.188;2022-07-15T04:48:21;102215.58;;;14.44;51.34
60817;BME280;51921;51.518;-3.188;2022-07-15T04:50:46;102222.80;;;14.76;50.61
60817;BME280;51921;51.518;-3.188;2022-07-15T04:53:17;102225.98;;;14.75;50.78
60817;BME280;51921;51.518;-3.188;2022-07-15T04:55:37;102225.28;;;14.74;50.49
60817;BME280;51921;51.518;-3.188;2022-07-15T04:58:02;102222.38;;;14.65;51.21
60817;BME280;51921;51.518;-3.188;2022-07-15T05:00:28;102221.59;;;14.69;50.91
60817;BME280;51921;51.518;-3.188;2022-07-15T05:02:54;102227.15;;;14.78;51.24
60817;BME280;51921;51.518;-3.188;2022-07-15T05:05:19;102226.41;;;14.64;51.45
60817;BME280;51921;51.518;-3.188;2022-07-15T05:07:44;102220.94;;;13.74;52.91
60817;BME280;51921;51.518;-3.188;2022-07-15T05:10:09;102224.01;;;13.44;53.65
60817;BME280;51921;51.518;-3.188;2022-07-15T05:12:35;102227.36;;;13.99;52.83
60817;BME280;51921;51.518;-3.188;2022-07-15T05:15:00;102234.26;;;15.10;50.91
60817;BME280;51921;51.518;-3.188;2022-07-15T05:17:26;102239.17;;;14.13;51.94
60817;BME280;51921;51.518;-3.188;2022-07-15T05:19:51;102236.81;;;14.48;51.46
60817;BME280;51921;51.518;-3.188;2022-07-15T05:22:17;102235.41;;;15.25;50.41
60817;BME280;51921;51.518;-3.188;2022-07-15T05:24:42;102239.07;;;14.61;51.75
60817;BME280;51921;51.518;-3.188;2022-07-15T05:27:07;102241.69;;;14.25;51.89
60817;BME280;51921;51.518;-3.188;2022-07-15T05:29:33;102244.08;;;14.05;52.53
60817;BME280;51921;51.518;-3.188;2022-07-15T05:31:58;102245.45;;;13.64;53.29
60817;BME280;51921;51.518;-3.188;2022-07-15T05:34:23;102235.82;;;13.98;53.09
60817;BME280;51921;51.518;-3.188;2022-07-15T05:36:49;102237.94;;;14.01;52.54
60817;BME280;51921;51.518;-3.188;2022-07-15T05:39:14;102240.08;;;15.00;51.43
60817;BME280;51921;51.518;-3.188;2022-07-15T05:41:40;102241.63;;;14.12;51.78
60817;BME280;51921;51.518;-3.188;2022-07-15T05:44:05;102243.42;;;14.63;51.38
60817;BME280;51921;51.518;-3.188;2022-07-15T05:46:30;102239.07;;;15.69;49.10
60817;BME280;51921;51.518;-3.188;2022-07-15T05:48:56;102237.34;;;17.44;46.04
60817;BME280;51921;51.518;-3.188;2022-07-15T05:51:21;102238.11;;;15.82;49.32
60817;BME280;51921;51.518;-3.188;2022-07-15T05:53:47;102238.08;;;14.96;50.62
60817;BME280;51921;51.518;-3.188;2022-07-15T05:56:17;102232.14;;;15.75;49.63
60817;BME280;51921;51.518;-3.188;2022-07-15T05:58:38;102234.37;;;16.06;48.39
60817;BME280;51921;51.518;-3.188;2022-07-15T06:01:03;102233.40;;;15.29;49.38
60817;BME280;51921;51.518;-3.188;2022-07-15T06:03:29;102236.41;;;14.48;50.72
60817;BME280;51921;51.518;-3.188;2022-07-15T06:05:54;102237.54;;;14.25;52.60
60817;BME280;51921;51.518;-3.188;2022-07-15T06:08:19;102233.41;;;14.47;52.14
60817;BME280;51921;51.518;-3.188;2022-07-15T06:10:45;102226.84;;;15.44;51.18
60817;BME280;51921;51.518;-3.188;2022-07-15T06:13:10;102231.80;;;14.28;52.69
60817;BME280;51921;51.518;-3.188;2022-07-15T06:15:35;102232.67;;;14.74;52.24
60817;BME280;51921;51.518;-3.188;2022-07-15T06:18:01;102237.99;;;15.13;50.58
60817;BME280;51921;51.518;-3.188;2022-07-15T06:20:26;102241.92;;;14.48;51.58
60817;BME280;51921;51.518;-3.188;2022-07-15T06:22:52;102241.23;;;14.65;51.60
60817;BME280;51921;51.518;-3.188;2022-07-15T06:25:17;102243.50;;;14.29;52.13
60817;BME280;51921;51.518;-3.188;2022-07-15T06:27:44;102240.09;;;15.04;51.54
60817;BME280;51921;51.518;-3.188;2022-07-15T06:30:09;102242.89;;;14.30;52.51
60817;BME280;51921;51.518;-3.188;2022-07-15T06:32:33;102246.98;;;14.69;51.94
60817;BME280;51921;51.518;-3.188;2022-07-15T06:34:59;102245.28;;;14.52;52.38
60817;BME280;51921;51.518;-3.188;2022-07-15T06:37:24;102245.16;;;14.41;53.22
60817;BME280;51921;51.518;-3.188;2022-07-15T06:39:50;102243.04;;;14.70;53.22
60817;BME280;51921;51.518;-3.188;2022-07-15T06:42:15;102239.30;;;15.60;51.05
60817;BME280;51921;51.518;-3.188;2022-07-15T06:44:40;102241.64;;;15.68;50.52
60817;BME280;51921;51.518;-3.188;2022-07-15T06:47:06;102242.15;;;15.19;51.63
60817;BME280;51921;51.518;-3.188;2022-07-15T06:49:31;102234.25;;;15.67;49.80
60817;BME280;51921;51.518;-3.188;2022-07-15T06:51:57;102229.03;;;17.38;46.07
60817;BME280;51921;51.518;-3.188;2022-07-15T06:54:23;102228.47;;;17.28;45.74
60817;BME280;51921;51.518;-3.188;2022-07-15T06:56:48;102223.31;;;17.33;46.23
60817;BME280;51921;51.518;-3.188;2022-07-15T06:59:13;102225.77;;;16.01;48.07
60817;BME280;51921;51.518;-3.188;2022-07-15T07:01:39;102227.87;;;16.71;47.42
60817;BME280;51921;51.518;-3.188;2022-07-15T07:04:04;102226.17;;;17.55;45.22
60817;BME280;51921;51.518;-3.188;2022-07-15T07:06:29;102224.16;;;16.56;47.76
60817;BME280;51921;51.518;-3.188;2022-07-15T07:08:56;102220.37;;;16.36;46.90
60817;BME280;51921;51.518;-3.188;2022-07-15T07:11:20;102214.88;;;16.95;46.47
60817;BME280;51921;51.518;-3.188;2022-07-15T07:13:46;102214.37;;;16.97;45.39
60817;BME280;51921;51.518;-3.188;2022-07-15T07:16:11;102218.78;;;17.08;45.20
60817;BME280;51921;51.518;-3.188;2022-07-15T07:18:36;102220.28;;;18.24;44.15
60817;BME280;51921;51.518;-3.188;2022-07-15T07:21:02;102219.56;;;18.15;44.01
60817;BME280;51921;51.518;-3.188;2022-07-15T07:23:28;102213.84;;;17.89;43.49
60817;BME280;51921;51.518;-3.188;2022-07-15T07:25:53;102210.90;;;17.94;43.58
60817;BME280;51921;51.518;-3.188;2022-07-15T07:28:18;102208.79;;;18.02;43.21
60817;BME280;51921;51.518;-3.188;2022-07-15T07:30:43;102207.18;;;18.78;40.79
60817;BME280;51921;51.518;-3.188;2022-07-15T07:33:09;102200.85;;;20.97;37.69
60817;BME280;51921;51.518;-3.188;2022-07-15T07:35:35;102202.61;;;20.96;36.25
60817;BME280;51921;51.518;-3.188;2022-07-15T07:37:59;102200.66;;;20.59;38.16
60817;BME280;51921;51.518;-3.188;2022-07-15T07:40:25;102198.02;;;22.69;34.60
60817;BME280;51921;51.518;-3.188;2022-07-15T07:42:50;102201.39;;;22.72;34.65
60817;BME280;51921;51.518;-3.188;2022-07-15T07:45:15;102200.08;;;24.48;31.66
60817;BME280;51921;51.518;-3.188;2022-07-15T07:47:40;102193.67;;;25.63;29.43
60817;BME280;51921;51.518;-3.188;2022-07-15T07:50:07;102197.13;;;23.92;31.15
60817;BME280;51921;51.518;-3.188;2022-07-15T07:52:31;102198.18;;;22.98;31.85
60817;BME280;51921;51.518;-3.188;2022-07-15T07:54:56;102198.64;;;23.03;30.98
60817;BME280;51921;51.518;-3.188;2022-07-15T07:57:21;102195.65;;;23.78;31.14
60817;BME280;51921;51.518;-3.188;2022-07-15T07:59:47;102195.28;;;26.75;27.21
60817;BME280;51921;51.518;-3.188;2022-07-15T08:02:12;102190.90;;;26.98;26.80
60817;BME280;51921;51.518;-3.188;2022-07-15T08:04:37;102195.50;;;24.91;28.80
60817;BME280;51921;51.518;-3.188;2022-07-15T08:07:02;102198.62;;;23.07;32.72
60817;BME280;51921;51.518;-3.188;2022-07-15T08:09:28;102192.94;;;24.73;30.33
60817;BME280;51921;51.518;-3.188;2022-07-15T08:11:53;102190.80;;;25.82;28.24
60817;BME280;51921;51.518;-3.188;2022-07-15T08:14:18;102198.03;;;25.21;28.60
60817;BME280;51921;51.518;-3.188;2022-07-15T08:16:45;102194.63;;;24.73;29.65
60817;BME280;51921;51.518;-3.188;2022-07-15T08:19:14;102193.45;;;24.48;29.79
60817;BME280;51921;51.518;-3.188;2022-07-15T08:21:34;102193.18;;;22.91;31.91
60817;BME280;51921;51.518;-3.188;2022-07-15T08:23:59;102195.40;;;22.28;32.77
60817;BME280;51921;51.518;-3.188;2022-07-15T08:26:24;102191.01;;;24.58;30.83
60817;BME280;51921;51.518;-3.188;2022-07-15T08:28:50;102190.80;;;25.19;30.29
60817;BME280;51921;51.518;-3.188;2022-07-15T08:31:15;102187.82;;;24.85;30.47
60817;BME280;51921;51.518;-3.188;2022-07-15T08:33:40;102187.32;;;21.84;34.35
60817;BME280;51921;51.518;-3.188;2022-07-15T08:36:06;102190.92;;;24.33;31.38
60817;BME280;51921;51.518;-3.188;2022-07-15T08:38:31;102181.97;;;22.14;35.35
60817;BME280;51921;51.518;-3.188;2022-07-15T08:40:56;102180.75;;;23.16;34.11
60817;BME280;51921;51.518;-3.188;2022-07-15T08:43:21;102179.48;;;21.40;35.79
60817;BME280;51921;51.518;-3.188;2022-07-15T08:45:47;102180.07;;;22.80;34.50
60817;BME280;51921;51.518;-3.188;2022-07-15T08:48:12;102174.97;;;20.16;38.37
60817;BME280;51921;51.518;-3.188;2022-07-15T08:50:38;102175.97;;;22.38;35.88
60817;BME280;51921;51.518;-3.188;2022-07-15T08:53:03;102176.91;;;23.37;34.77
60817;BME280;51921;51.518;-3.188;2022-07-15T08:55:28;102174.65;;;22.90;36.20
60817;BME280;51921;51.518;-3.188;2022-07-15T08:57:54;102178.57;;;22.73;35.82
60817;BME280;51921;51.518;-3.188;2022-07-15T09:00:19;102177.34;;;23.73;33.35
60817;BME280;51921;51.518;-3.188;2022-07-15T09:02:44;102176.10;;;22.80;34.38
60817;BME280;51921;51.518;-3.188;2022-07-15T09:05:22;102168.73;;;22.09;35.98
60817;BME280;51921;51.518;-3.188;2022-07-15T09:10:00;102164.39;;;23.35;33.75
60817;BME280;51921;51.518;-3.188;2022-07-15T09:12:25;102166.44;;;22.54;35.43
60817;BME280;51921;51.518;-3.188;2022-07-15T09:14:51;102162.54;;;22.69;36.14
60817;BME280;51921;51.518;-3.188;2022-07-15T09:17:23;102161.51;;;22.30;37.37
60817;BME280;51921;51.518;-3.188;2022-07-15T09:19:56;102163.24;;;22.33;38.21
60817;BME280;51921;51.518;-3.188;2022-07-15T09:22:06;102156.25;;;22.97;36.97
60817;BME280;51921;51.518;-3.188;2022-07-15T09:24:32;102155.33;;;21.68;39.30
60817;BME280;51921;51.518;-3.188;2022-07-15T09:26:57;102156.07;;;22.01;39.00
60817;BME280;51921;51.518;-3.188;2022-07-15T09:31:55;102151.36;;;22.18;38.80
60817;BME280;51921;51.518;-3.188;2022-07-15T09:34:13;102153.35;;;22.15;39.37
60817;BME280;51921;51.518;-3.188;2022-07-15T09:36:42;102152.33;;;23.17;39.08
60817;BME280;51921;51.518;-3.188;2022-07-15T09:39:05;102154.92;;;23.28;38.79
60817;BME280;51921;51.518;-3.188;2022-07-15T09:41:32;102155.73;;;23.16;39.32
60817;BME280;51921;51.518;-3.188;2022-07-15T09:43:57;102156.83;;;22.94;40.14
60817;BME280;51921;51.518;-3.188;2022-07-15T09:46:29;102152.17;;;21.61;42.35
60817;BME280;51921;51.518;-3.188;2022-07-15T09:48:47;102153.32;;;21.91;42.21
60817;BME280;51921;51.518;-3.188;2022-07-15T09:51:11;102156.87;;;20.72;43.22
60817;BME280;51921;51.518;-3.188;2022-07-15T09:53:37;102157.21;;;21.57;42.84
60817;BME280;51921;51.518;-3.188;2022-07-15T09:56:03;102166.88;;;20.44;45.22
60817;BME280;51921;51.518;-3.188;2022-07-15T09:58:27;102166.35;;;20.57;46.07
60817;BME280;51921;51.518;-3.188;2022-07-15T10:00:52;102159.75;;;20.96;45.09
60817;BME280;51921;51.518;-3.188;2022-07-15T10:03:18;102160.93;;;20.22;47.76
60817;BME280;51921;51.518;-3.188;2022-07-15T10:05:43;102162.58;;;21.68;44.45
60817;BME280;51921;51.518;-3.188;2022-07-15T10:08:09;102161.14;;;21.98;43.76
60817;BME280;51921;51.518;-3.188;2022-07-15T10:10:34;102160.44;;;21.29;44.25
60817;BME280;51921;51.518;-3.188;2022-07-15T10:13:05;102153.22;;;21.71;43.13
60817;BME280;51921;51.518;-3.188;2022-07-15T10:15:33;102160.64;;;21.27;43.16
60817;BME280;51921;51.518;-3.188;2022-07-15T10:18:01;102159.39;;;22.18;43.40
60817;BME280;51921;51.518;-3.188;2022-07-15T10:22:52;102160.45;;;20.83;43.70
60817;BME280;51921;51.518;-3.188;2022-07-15T10:25:17;102162.35;;;20.69;42.41
60817;BME280;51921;51.518;-3.188;2022-07-15T10:29:57;102154.09;;;21.87;42.77
60817;BME280;51921;51.518;-3.188;2022-07-15T10:32:23;102155.13;;;20.70;46.23
60817;BME280;51921;51.518;-3.188;2022-07-15T10:34:48;102153.38;;;21.03;44.11
60817;BME280;51921;51.518;-3.188;2022-07-15T10:37:13;102154.44;;;20.97;44.72
60817;BME280;51921;51.518;-3.188;2022-07-15T10:39:50;102150.06;;;21.23;45.18
60817;BME280;51921;51.518;-3.188;2022-07-15T10:42:04;102147.68;;;20.49;45.51
60817;BME280;51921;51.518;-3.188;2022-07-15T10:44:31;102146.77;;;20.75;47.17
60817;BME280;51921;51.518;-3.188;2022-07-15T10:49:30;102148.22;;;19.95;48.20
60817;BME280;51921;51.518;-3.188;2022-07-15T10:51:46;102143.02;;;20.12;46.74
60817;BME280;51921;51.518;-3.188;2022-07-15T10:56:41;102129.99;;;21.52;43.53
60817;BME280;51921;51.518;-3.188;2022-07-15T10:59:08;102129.62;;;22.04;42.92
60817;BME280;51921;51.518;-3.188;2022-07-15T11:01:28;102130.13;;;20.89;42.81
60817;BME280;51921;51.518;-3.188;2022-07-15T11:06:18;102121.12;;;20.28;44.60
60817;BME280;51921;51.518;-3.188;2022-07-15T11:08:50;102126.66;;;20.06;45.13
60817;BME280;51921;51.518;-3.188;2022-07-15T11:13:34;102124.47;;;19.98;47.11
60817;BME280;51921;51.518;-3.188;2022-07-15T11:16:00;102130.34;;;20.26;45.78
60817;BME280;51921;51.518;-3.188;2022-07-15T11:18:26;102128.86;;;19.76;46.72
60817;BME280;51921;51.518;-3.188;2022-07-15T11:20:52;102131.07;;;21.20;45.42
60817;BME280;51921;51.518;-3.188;2022-07-15T11:23:17;102136.10;;;20.26;45.16
60817;BME280;51921;51.518;-3.188;2022-07-15T11:25:42;102133.65;;;20.95;45.10
60817;BME280;51921;51.518;-3.188;2022-07-15T11:28:09;102129.18;;;21.25;45.63
60817;BME280;51921;51.518;-3.188;2022-07-15T11:30:41;102132.56;;;21.84;44.55
60817;BME280;51921;51.518;-3.188;2022-07-15T11:33:00;102131.78;;;21.31;45.19
60817;BME280;51921;51.518;-3.188;2022-07-15T11:35:24;102131.21;;;21.01;45.19
60817;BME280;51921;51.518;-3.188;2022-07-15T11:37:55;102129.87;;;20.16;47.19
60817;BME280;51921;51.518;-3.188;2022-07-15T11:40:16;102135.14;;;20.36;47.53
60817;BME280;51921;51.518;-3.188;2022-07-15T11:42:39;102141.88;;;19.55;48.50
60817;BME280;51921;51.518;-3.188;2022-07-15T11:45:05;102143.53;;;20.96;47.12
60817;BME280;51921;51.518;-3.188;2022-07-15T11:47:30;102137.93;;;20.01;49.05
60817;BME280;51921;51.518;-3.188;2022-07-15T11:49:59;102139.14;;;20.88;47.32
60817;BME280;51921;51.518;-3.188;2022-07-15T11:52:23;102131.29;;;20.69;47.34
60817;BME280;51921;51.518;-3.188;2022-07-15T11:54:46;102121.80;;;20.18;48.21
60817;BME280;51921;51.518;-3.188;2022-07-15T11:57:12;102127.40;;;20.41;48.54
60817;BME280;51921;51.518;-3.188;2022-07-15T11:59:37;102126.93;;;20.57;47.74
60817;BME280;51921;51.518;-3.188;2022-07-15T12:02:03;102120.35;;;20.51;49.18
60817;BME280;51921;51.518;-3.188;2022-07-15T12:04:28;102123.04;;;20.94;48.93
60817;BME280;51921;51.518;-3.188;2022-07-15T12:06:53;102112.47;;;21.51;46.86
60817;BME280;51921;51.518;-3.188;2022-07-15T12:09:18;102121.56;;;21.43;47.41
60817;BME280;51921;51.518;-3.188;2022-07-15T12:11:44;102118.41;;;21.32;47.14
60817;BME280;51921;51.518;-3.188;2022-07-15T12:14:11;102118.22;;;20.77;47.49
60817;BME280;51921;51.518;-3.188;2022-07-15T12:16:37;102111.22;;;21.50;47.02
60817;BME280;51921;51.518;-3.188;2022-07-15T12:19:03;102110.91;;;20.55;47.44
60817;BME280;51921;51.518;-3.188;2022-07-15T12:21:25;102107.75;;;20.42;48.96
60817;BME280;51921;51.518;-3.188;2022-07-15T12:24:01;102105.36;;;20.40;51.16
60817;BME280;51921;51.518;-3.188;2022-07-15T12:26:16;102106.14;;;19.68;50.45
60817;BME280;51921;51.518;-3.188;2022-07-15T12:28:41;102113.60;;;19.89;48.98
60817;BME280;51921;51.518;-3.188;2022-07-15T12:31:07;102108.87;;;20.43;48.23
60817;BME280;51921;51.518;-3.188;2022-07-15T12:33:35;102105.80;;;20.37;48.79
60817;BME280;51921;51.518;-3.188;2022-07-15T12:36:13;102107.69;;;19.96;50.01
60817;BME280;51921;51.518;-3.188;2022-07-15T12:38:26;102109.45;;;21.09;47.82
60817;BME280;51921;51.518;-3.188;2022-07-15T12:40:47;102114.24;;;20.70;47.90
60817;BME280;51921;51.518;-3.188;2022-07-15T12:43:13;102105.75;;;21.96;45.24
60817;BME280;51921;51.518;-3.188;2022-07-15T12:45:39;102107.47;;;21.12;47.14
60817;BME280;51921;51.518;-3.188;2022-07-15T12:48:05;102108.10;;;19.85;50.35
60817;BME280;51921;51.518;-3.188;2022-07-15T12:50:30;102111.40;;;20.24;49.84